sensor_id;sensor_type;location;lat;lon;timestamp;P1;durP1;ratioP1;P2;durP2;ratioP2
13897;SDS011;7019;50.766;4.474;2023-04-15T00:02:14;4.00;;;2.40;;
13897;SDS011;7019;50.766;4.474;2023-04-15T00:04:42;3.53;;;1.87;;
13897;SDS011;7019;50.766;4.474;2023-04-15T00:07:11;4.83;;;2.20;;
13897;SDS011;7019;50.766;4.474;2023-04-15T00:09:38;6.00;;;2.30;;
13897;SDS011;7019;50.766;4.474;2023-04-15T00:12:06;5.47;;;2.40;;
13897;SDS011;7019;50.766;4.474;2023-04-15T00:14:34;5.73;;;2.90;;
13897;SDS011;7019;50.766;4.474;2023-04-15T00:17:01;3.03;;;2.17;;
13897;SDS011;7019;50.766;4.474;2023-04-15T00:19:29;5.23;;;2.17;;
13897;SDS011;7019;50.766;4.474;2023-04-15T00:21:56;4.17;;;1.97;;
13897;SDS011;7019;50.766;4.474;2023-04-15T00:24:25;4.23;;;2.43;;
13897;SDS011;7019;50.766;4.474;2023-04-15T00:26:52;2.53;;;2.27;;
13897;SDS011;7019;50.766;4.474;2023-04-15T00:29:19;4.70;;;2.17;;
13897;SDS011;7019;50.766;4.474;2023-04-15T00:31:46;4.43;;;1.80;;
13897;SDS011;7019;50.766;4.474;2023-04-15T00:34:13;4.27;;;1.57;;
13897;SDS011;7019;50.766;4.474;2023-04-15T00:36:40;4.17;;;1.87;;
13897;SDS011;7019;50.766;4.474;2023-04-15T00:39:07;3.23;;;2.00;;
13897;SDS011;7019;50.766;4.474;2023-04-15T00:41:36;4.43;;;1.60;;
13897;SDS011;7019;50.766;4.474;2023-04-15T00:44:04;5.23;;;1.67;;
13897;SDS011;7019;50.766;4.474;2023-04-15T00:46:32;6.83;;;1.80;;
13897;SDS011;7019;50.766;4.474;2023-04-15T00:49:02;4.40;;;1.50;;
13897;SDS011;7019;50.766;4.474;2023-04-15T00:51:30;5.40;;;1.87;;
13897;SDS011;7019;50.766;4.474;2023-04-15T00:54:00;4.33;;;2.10;;
13897;SDS011;7019;50.766;4.474;2023-04-15T00:56:27;8.83;;;3.80;;
13897;SDS011;7019;50.766;4.474;2023-04-15T00:58:56;7.53;;;3.80;;
13897;SDS011;7019;50.766;4.474;2023-04-15T01:01:25;6.73;;;3.60;;
13897;SDS011;7019;50.766;4.474;2023-04-15T01:03:53;6.73;;;3.50;;
13897;SDS011;7019;50.766;4.474;2023-04-15T01:06:22;6.90;;;2.97;;
13897;SDS011;7019;50.766;4.474;2023-04-15T01:08:51;4.53;;;2.90;;
13897;SDS011;7019;50.766;4.474;2023-04-15T01:11:18;7.50;;;2.60;;
13897;SDS011;7019;50.766;4.474;2023-04-15T01:13:46;8.97;;;2.80;;
13897;SDS011;7019;50.766;4.474;2023-04-15T01:16:15;5.23;;;2.43;;
13897;SDS011;7019;50.766;4.474;2023-04-15T01:18:42;3.67;;;2.73;;
13897;SDS011;7019;50.766;4.474;2023-04-15T01:21:09;5.60;;;2.63;;
13897;SDS011;7019;50.766;4.474;2023-04-15T01:23:36;6.10;;;2.87;;
13897;SDS011;7019;50.766;4.474;2023-04-15T01:26:06;4.40;;;2.17;;
13897;SDS011;7019;50.766;4.474;2023-04-15T01:28:34;4.07;;;2.17;;
13897;SDS011;7019;50.766;4.474;2023-04-15T01:31:05;3.13;;;2.40;;
13897;SDS011;7019;50.766;4.474;2023-04-15T01:33:33;5.30;;;3.10;;
13897;SDS011;7019;50.766;4.474;2023-04-15T01:36:00;2.70;;;2.03;;
13897;SDS011;7019;50.766;4.474;2023-04-15T01:38:28;4.50;;;2.80;;
13897;SDS011;7019;50.766;4.474;2023-04-15T01:40:56;2.90;;;2.03;;
13897;SDS011;7019;50.766;4.474;2023-04-15T01:43:24;5.07;;;2.73;;
13897;SDS011;7019;50.766;4.474;2023-04-15T01:45:52;4.23;;;2.23;;
13897;SDS011;7019;50.766;4.474;2023-04-15T01:48:19;4.87;;;2.40;;
13897;SDS011;7019;50.766;4.474;2023-04-15T01:50:47;3.87;;;2.07;;
13897;SDS011;7019;50.766;4.474;2023-04-15T01:53:14;2.97;;;2.20;;
13897;SDS011;7019;50.766;4.474;2023-04-15T01:55:41;2.17;;;1.50;;
13897;SDS011;7019;50.766;4.474;2023-04-15T01:58:08;5.33;;;2.10;;
13897;SDS011;7019;50.766;4.474;2023-04-15T02:00:37;6.47;;;2.13;;
13897;SDS011;7019;50.766;4.474;2023-04-15T02:03:04;4.03;;;2.00;;
13897;SDS011;7019;50.766;4.474;2023-04-15T02:05:31;4.67;;;2.33;;
13897;SDS011;7019;50.766;4.474;2023-04-15T02:07:58;3.20;;;1.83;;
13897;SDS011;7019;50.766;4.474;2023-04-15T02:10:25;5.43;;;2.63;;
13897;SDS011;7019;50.766;4.474;2023-04-15T02:12:52;3.47;;;2.37;;
13897;SDS011;7019;50.766;4.474;2023-04-15T02:15:19;2.40;;;2.13;;
13897;SDS011;7019;50.766;4.474;2023-04-15T02:17:48;4.23;;;1.67;;
13897;SDS011;7019;50.766;4.474;2023-04-15T02:20:17;5.30;;;2.20;;
13897;SDS011;7019;50.766;4.474;2023-04-15T02:22:45;3.77;;;2.03;;
13897;SDS011;7019;50.766;4.474;2023-04-15T02:25:12;2.67;;;2.27;;
13897;SDS011;7019;50.766;4.474;2023-04-15T02:27:40;2.87;;;2.07;;
13897;SDS011;7019;50.766;4.474;2023-04-15T02:30:08;4.43;;;2.30;;
13897;SDS011;7019;50.766;4.474;2023-04-15T02:32:36;5.07;;;2.40;;
13897;SDS011;7019;50.766;4.474;2023-04-15T02:35:05;3.40;;;2.13;;
13897;SDS011;7019;50.766;4.474;2023-04-15T02:37:34;4.10;;;2.77;;
13897;SDS011;7019;50.766;4.474;2023-04-15T02:40:06;6.07;;;2.40;;
13897;SDS011;7019;50.766;4.474;2023-04-15T02:42:35;5.17;;;2.77;;
13897;SDS011;7019;50.766;4.474;2023-04-15T02:45:03;3.23;;;2.50;;
13897;SDS011;7019;50.766;4.474;2023-04-15T02:47:32;3.47;;;3.17;;
13897;SDS011;7019;50.766;4.474;2023-04-15T02:50:00;4.70;;;3.00;;
13897;SDS011;7019;50.766;4.474;2023-04-15T02:52:29;3.47;;;3.00;;
13897;SDS011;7019;50.766;4.474;2023-04-15T02:54:56;4.23;;;2.73;;
13897;SDS011;7019;50.766;4.474;2023-04-15T02:57:25;6.43;;;3.00;;
13897;SDS011;7019;50.766;4.474;2023-04-15T02:59:53;8.30;;;3.90;;
13897;SDS011;7019;50.766;4.474;2023-04-15T03:02:20;4.20;;;3.30;;
13897;SDS011;7019;50.766;4.474;2023-04-15T03:04:47;6.80;;;3.90;;
13897;SDS011;7019;50.766;4.474;2023-04-15T03:07:14;5.30;;;3.50;;
13897;SDS011;7019;50.766;4.474;2023-04-15T03:09:43;4.70;;;3.77;;
13897;SDS011;7019;50.766;4.474;2023-04-15T03:12:11;4.57;;;3.43;;
13897;SDS011;7019;50.766;4.474;2023-04-15T03:14:39;5.03;;;3.83;;
13897;SDS011;7019;50.766;4.474;2023-04-15T03:17:06;10.10;;;4.20;;
13897;SDS011;7019;50.766;4.474;2023-04-15T03:19:33;6.10;;;4.20;;
13897;SDS011;7019;50.766;4.474;2023-04-15T03:22:00;6.60;;;4.20;;
13897;SDS011;7019;50.766;4.474;2023-04-15T03:24:27;7.77;;;4.30;;
13897;SDS011;7019;50.766;4.474;2023-04-15T03:26:56;5.60;;;3.87;;
13897;SDS011;7019;50.766;4.474;2023-04-15T03:29:23;7.73;;;4.13;;
13897;SDS011;7019;50.766;4.474;2023-04-15T03:31:51;5.60;;;4.30;;
13897;SDS011;7019;50.766;4.474;2023-04-15T03:34:18;4.73;;;4.23;;
13897;SDS011;7019;50.766;4.474;2023-04-15T03:36:45;6.37;;;4.90;;
13897;SDS011;7019;50.766;4.474;2023-04-15T03:39:12;12.63;;;6.80;;
13897;SDS011;7019;50.766;4.474;2023-04-15T03:41:40;14.77;;;8.30;;
13897;SDS011;7019;50.766;4.474;2023-04-15T03:44:08;11.47;;;7.60;;
13897;SDS011;7019;50.766;4.474;2023-04-15T03:46:35;14.93;;;7.60;;
13897;SDS011;7019;50.766;4.474;2023-04-15T03:49:02;18.67;;;9.10;;
13897;SDS011;7019;50.766;4.474;2023-04-15T03:51:30;18.13;;;9.57;;
13897;SDS011;7019;50.766;4.474;2023-04-15T03:53:57;17.53;;;10.03;;
13897;SDS011;7019;50.766;4.474;2023-04-15T03:56:24;14.27;;;8.77;;
13897;SDS011;7019;50.766;4.474;2023-04-15T03:58:51;17.43;;;9.27;;
13897;SDS011;7019;50.766;4.474;2023-04-15T04:01:19;17.60;;;9.70;;
13897;SDS011;7019;50.766;4.474;2023-04-15T04:03:46;15.10;;;8.33;;
13897;SDS011;7019;50.766;4.474;2023-04-15T04:06:13;15.10;;;8.80;;
13897;SDS011;7019;50.766;4.474;2023-04-15T04:08:41;16.93;;;9.57;;
13897;SDS011;7019;50.766;4.474;2023-04-15T04:11:08;16.27;;;10.07;;
13897;SDS011;7019;50.766;4.474;2023-04-15T04:13:35;16.57;;;9.57;;
13897;SDS011;7019;50.766;4.474;2023-04-15T04:16:02;12.10;;;8.37;;
13897;SDS011;7019;50.766;4.474;2023-04-15T04:18:31;15.30;;;8.40;;
13897;SDS011;7019;50.766;4.474;2023-04-15T04:20:58;11.47;;;9.10;;
13897;SDS011;7019;50.766;4.474;2023-04-15T04:23:26;13.63;;;8.80;;
13897;SDS011;7019;50.766;4.474;2023-04-15T04:25:53;13.97;;;8.87;;
13897;SDS011;7019;50.766;4.474;2023-04-15T04:28:20;15.80;;;9.43;;
13897;SDS011;7019;50.766;4.474;2023-04-15T04:30:47;13.87;;;8.67;;
13897;SDS011;7019;50.766;4.474;2023-04-15T04:33:14;14.47;;;8.50;;
13897;SDS011;7019;50.766;4.474;2023-04-15T04:35:43;13.73;;;8.67;;
13897;SDS011;7019;50.766;4.474;2023-04-15T04:38:10;13.93;;;8.97;;
13897;SDS011;7019;50.766;4.474;2023-04-15T04:40:37;16.53;;;9.93;;
13897;SDS011;7019;50.766;4.474;2023-04-15T04:43:04;16.03;;;10.20;;
13897;SDS011;7019;50.766;4.474;2023-04-15T04:45:31;15.57;;;9.03;;
13897;SDS011;7019;50.766;4.474;2023-04-15T04:47:58;12.53;;;9.03;;
13897;SDS011;7019;50.766;4.474;2023-04-15T04:50:25;12.87;;;8.60;;
13897;SDS011;7019;50.766;4.474;2023-04-15T04:52:53;14.67;;;9.43;;
13897;SDS011;7019;50.766;4.474;2023-04-15T04:55:20;12.47;;;8.23;;
13897;SDS011;7019;50.766;4.474;2023-04-15T04:57:47;15.57;;;8.77;;
13897;SDS011;7019;50.766;4.474;2023-04-15T05:00:14;12.97;;;8.20;;
13897;SDS011;7019;50.766;4.474;2023-04-15T05:02:42;12.37;;;7.80;;
13897;SDS011;7019;50.766;4.474;2023-04-15T05:05:09;10.70;;;7.23;;
13897;SDS011;7019;50.766;4.474;2023-04-15T05:07:37;10.57;;;7.27;;
13897;SDS011;7019;50.766;4.474;2023-04-15T05:10:07;12.73;;;7.87;;
13897;SDS011;7019;50.766;4.474;2023-04-15T05:12:34;13.97;;;7.67;;
13897;SDS011;7019;50.766;4.474;2023-04-15T05:15:02;13.43;;;7.93;;
13897;SDS011;7019;50.766;4.474;2023-04-15T05:17:30;11.23;;;6.97;;
13897;SDS011;7019;50.766;4.474;2023-04-15T05:19:59;11.80;;;8.47;;
13897;SDS011;7019;50.766;4.474;2023-04-15T05:22:26;13.53;;;8.70;;
13897;SDS011;7019;50.766;4.474;2023-04-15T05:24:53;14.50;;;8.27;;
13897;SDS011;7019;50.766;4.474;2023-04-15T05:27:22;11.03;;;8.97;;
13897;SDS011;7019;50.766;4.474;2023-04-15T05:29:49;10.67;;;8.30;;
13897;SDS011;7019;50.766;4.474;2023-04-15T05:32:16;9.47;;;8.47;;
13897;SDS011;7019;50.766;4.474;2023-04-15T05:34:43;11.83;;;8.17;;
13897;SDS011;7019;50.766;4.474;2023-04-15T05:37:10;15.97;;;8.80;;
13897;SDS011;7019;50.766;4.474;2023-04-15T05:39:37;9.07;;;7.77;;
13897;SDS011;7019;50.766;4.474;2023-04-15T05:42:04;10.57;;;7.33;;
13897;SDS011;7019;50.766;4.474;2023-04-15T05:44:33;12.60;;;8.63;;
13897;SDS011;7019;50.766;4.474;2023-04-15T05:47:00;11.00;;;8.17;;
13897;SDS011;7019;50.766;4.474;2023-04-15T05:49:27;11.27;;;7.37;;
13897;SDS011;7019;50.766;4.474;2023-04-15T05:51:54;9.03;;;6.10;;
13897;SDS011;7019;50.766;4.474;2023-04-15T05:54:21;11.80;;;5.80;;
13897;SDS011;7019;50.766;4.474;2023-04-15T05:56:49;9.20;;;5.93;;
13897;SDS011;7019;50.766;4.474;2023-04-15T05:59:16;10.47;;;6.03;;
13897;SDS011;7019;50.766;4.474;2023-04-15T06:01:44;10.10;;;5.50;;
13897;SDS011;7019;50.766;4.474;2023-04-15T06:04:11;11.23;;;6.27;;
13897;SDS011;7019;50.766;4.474;2023-04-15T06:06:38;9.63;;;5.77;;
13897;SDS011;7019;50.766;4.474;2023-04-15T06:09:06;7.17;;;6.47;;
13897;SDS011;7019;50.766;4.474;2023-04-15T06:11:33;12.10;;;6.80;;
13897;SDS011;7019;50.766;4.474;2023-04-15T06:14:00;7.80;;;5.97;;
13897;SDS011;7019;50.766;4.474;2023-04-15T06:16:27;11.83;;;6.53;;
13897;SDS011;7019;50.766;4.474;2023-04-15T06:18:55;7.27;;;5.83;;
13897;SDS011;7019;50.766;4.474;2023-04-15T06:21:22;13.60;;;6.43;;
13897;SDS011;7019;50.766;4.474;2023-04-15T06:23:49;9.03;;;6.97;;
13897;SDS011;7019;50.766;4.474;2023-04-15T06:26:16;8.00;;;6.00;;
13897;SDS011;7019;50.766;4.474;2023-04-15T06:28:43;9.00;;;6.90;;
13897;SDS011;7019;50.766;4.474;2023-04-15T06:31:10;10.73;;;6.97;;
13897;SDS011;7019;50.766;4.474;2023-04-15T06:33:38;7.00;;;5.80;;
13897;SDS011;7019;50.766;4.474;2023-04-15T06:36:06;10.63;;;6.30;;
13897;SDS011;7019;50.766;4.474;2023-04-15T06:38:33;8.90;;;6.00;;
13897;SDS011;7019;50.766;4.474;2023-04-15T06:41:00;8.27;;;5.63;;
13897;SDS011;7019;50.766;4.474;2023-04-15T06:43:28;7.70;;;5.70;;
13897;SDS011;7019;50.766;4.474;2023-04-15T06:45:55;8.30;;;6.37;;
13897;SDS011;7019;50.766;4.474;2023-04-15T06:48:23;10.13;;;5.83;;
13897;SDS011;7019;50.766;4.474;2023-04-15T06:50:50;9.20;;;5.83;;
13897;SDS011;7019;50.766;4.474;2023-04-15T06:53:18;8.57;;;5.63;;
13897;SDS011;7019;50.766;4.474;2023-04-15T06:55:46;6.07;;;4.67;;
13897;SDS011;7019;50.766;4.474;2023-04-15T06:58:13;6.73;;;4.60;;
13897;SDS011;7019;50.766;4.474;2023-04-15T07:00:40;7.53;;;5.40;;
13897;SDS011;7019;50.766;4.474;2023-04-15T07:03:07;8.70;;;5.10;;
13897;SDS011;7019;50.766;4.474;2023-04-15T07:05:35;7.43;;;5.20;;
13897;SDS011;7019;50.766;4.474;2023-04-15T07:08:02;7.90;;;5.57;;
13897;SDS011;7019;50.766;4.474;2023-04-15T07:10:32;8.63;;;5.20;;
13897;SDS011;7019;50.766;4.474;2023-04-15T07:12:59;6.80;;;4.93;;
13897;SDS011;7019;50.766;4.474;2023-04-15T07:15:26;9.00;;;4.07;;
13897;SDS011;7019;50.766;4.474;2023-04-15T07:17:53;7.50;;;4.03;;
13897;SDS011;7019;50.766;4.474;2023-04-15T07:20:21;7.07;;;4.20;;
13897;SDS011;7019;50.766;4.474;2023-04-15T07:22:47;8.03;;;4.57;;
13897;SDS011;7019;50.766;4.474;2023-04-15T07:25:14;7.43;;;4.20;;
13897;SDS011;7019;50.766;4.474;2023-04-15T07:27:44;7.20;;;3.77;;
13897;SDS011;7019;50.766;4.474;2023-04-15T07:30:11;5.30;;;3.97;;
13897;SDS011;7019;50.766;4.474;2023-04-15T07:32:38;6.17;;;3.40;;
13897;SDS011;7019;50.766;4.474;2023-04-15T07:35:07;7.30;;;3.20;;
13897;SDS011;7019;50.766;4.474;2023-04-15T07:37:34;6.03;;;3.30;;
13897;SDS011;7019;50.766;4.474;2023-04-15T07:40:02;6.70;;;3.13;;
13897;SDS011;7019;50.766;4.474;2023-04-15T07:42:31;5.80;;;3.20;;
13897;SDS011;7019;50.766;4.474;2023-04-15T07:45:00;5.33;;;3.50;;
13897;SDS011;7019;50.766;4.474;2023-04-15T07:47:27;6.00;;;3.07;;
13897;SDS011;7019;50.766;4.474;2023-04-15T07:49:54;4.60;;;3.53;;
13897;SDS011;7019;50.766;4.474;2023-04-15T07:52:21;6.43;;;3.47;;
13897;SDS011;7019;50.766;4.474;2023-04-15T07:54:48;6.73;;;3.90;;
13897;SDS011;7019;50.766;4.474;2023-04-15T07:57:15;8.20;;;4.17;;
13897;SDS011;7019;50.766;4.474;2023-04-15T07:59:43;6.47;;;4.57;;
13897;SDS011;7019;50.766;4.474;2023-04-15T08:02:11;7.10;;;4.03;;
13897;SDS011;7019;50.766;4.474;2023-04-15T08:04:38;8.37;;;4.97;;
13897;SDS011;7019;50.766;4.474;2023-04-15T08:07:05;7.07;;;4.80;;
13897;SDS011;7019;50.766;4.474;2023-04-15T08:09:32;8.77;;;5.00;;
13897;SDS011;7019;50.766;4.474;2023-04-15T08:11:59;7.43;;;5.40;;
13897;SDS011;7019;50.766;4.474;2023-04-15T08:14:26;10.37;;;5.50;;
13897;SDS011;7019;50.766;4.474;2023-04-15T08:16:54;8.37;;;6.17;;
13897;SDS011;7019;50.766;4.474;2023-04-15T08:19:22;10.23;;;5.50;;
13897;SDS011;7019;50.766;4.474;2023-04-15T08:21:50;8.33;;;6.00;;
13897;SDS011;7019;50.766;4.474;2023-04-15T08:24:17;10.37;;;5.87;;
13897;SDS011;7019;50.766;4.474;2023-04-15T08:26:44;7.50;;;5.47;;
13897;SDS011;7019;50.766;4.474;2023-04-15T08:29:12;7.57;;;5.23;;
13897;SDS011;7019;50.766;4.474;2023-04-15T08:31:39;8.00;;;5.37;;
13897;SDS011;7019;50.766;4.474;2023-04-15T08:34:06;8.70;;;6.20;;
13897;SDS011;7019;50.766;4.474;2023-04-15T08:36:34;7.83;;;6.17;;
13897;SDS011;7019;50.766;4.474;2023-04-15T08:39:02;9.53;;;5.90;;
13897;SDS011;7019;50.766;4.474;2023-04-15T08:41:31;11.87;;;6.57;;
13897;SDS011;7019;50.766;4.474;2023-04-15T08:44:05;9.63;;;6.00;;
13897;SDS011;7019;50.766;4.474;2023-04-15T08:46:32;9.43;;;5.90;;
13897;SDS011;7019;50.766;4.474;2023-04-15T08:49:00;10.47;;;6.70;;
13897;SDS011;7019;50.766;4.474;2023-04-15T08:51:30;9.50;;;6.17;;
13897;SDS011;7019;50.766;4.474;2023-04-15T08:53:59;11.80;;;6.13;;
13897;SDS011;7019;50.766;4.474;2023-04-15T08:56:27;7.63;;;6.13;;
13897;SDS011;7019;50.766;4.474;2023-04-15T08:58:57;8.23;;;6.10;;
13897;SDS011;7019;50.766;4.474;2023-04-15T09:01:25;11.07;;;6.30;;
13897;SDS011;7019;50.766;4.474;2023-04-15T09:03:52;8.13;;;6.70;;
13897;SDS011;7019;50.766;4.474;2023-04-15T09:06:19;11.27;;;6.63;;
13897;SDS011;7019;50.766;4.474;2023-04-15T09:08:46;7.77;;;5.90;;
13897;SDS011;7019;50.766;4.474;2023-04-15T09:11:15;16.87;;;6.77;;
13897;SDS011;7019;50.766;4.474;2023-04-15T09:13:43;9.57;;;6.93;;
13897;SDS011;7019;50.766;4.474;2023-04-15T09:16:10;10.57;;;6.43;;
13897;SDS011;7019;50.766;4.474;2023-04-15T09:18:39;10.47;;;6.73;;
13897;SDS011;7019;50.766;4.474;2023-04-15T09:21:07;7.27;;;5.50;;
13897;SDS011;7019;50.766;4.474;2023-04-15T09:23:36;7.40;;;5.33;;
13897;SDS011;7019;50.766;4.474;2023-04-15T09:26:04;7.17;;;4.93;;
13897;SDS011;7019;50.766;4.474;2023-04-15T09:28:33;5.53;;;4.30;;
13897;SDS011;7019;50.766;4.474;2023-04-15T09:31:07;8.57;;;5.07;;
13897;SDS011;7019;50.766;4.474;2023-04-15T09:33:35;7.50;;;4.73;;
13897;SDS011;7019;50.766;4.474;2023-04-15T09:36:20;8.87;;;4.60;;
13897;SDS011;7019;50.766;4.474;2023-04-15T09:38:53;6.07;;;4.60;;
13897;SDS011;7019;50.766;4.474;2023-04-15T09:41:21;8.13;;;4.93;;
13897;SDS011;7019;50.766;4.474;2023-04-15T09:43:50;6.43;;;4.57;;
13897;SDS011;7019;50.766;4.474;2023-04-15T09:46:18;6.87;;;4.57;;
13897;SDS011;7019;50.766;4.474;2023-04-15T09:48:45;10.50;;;4.60;;
13897;SDS011;7019;50.766;4.474;2023-04-15T09:51:12;9.00;;;5.03;;
13897;SDS011;7019;50.766;4.474;2023-04-15T09:53:39;6.17;;;4.70;;
13897;SDS011;7019;50.766;4.474;2023-04-15T09:56:06;6.33;;;4.90;;
13897;SDS011;7019;50.766;4.474;2023-04-15T09:58:35;6.23;;;4.33;;
13897;SDS011;7019;50.766;4.474;2023-04-15T10:01:04;10.60;;;4.67;;
13897;SDS011;7019;50.766;4.474;2023-04-15T10:03:33;8.07;;;5.03;;
13897;SDS011;7019;50.766;4.474;2023-04-15T10:06:01;7.47;;;5.00;;
13897;SDS011;7019;50.766;4.474;2023-04-15T10:08:30;6.77;;;4.67;;
13897;SDS011;7019;50.766;4.474;2023-04-15T10:10:59;6.50;;;5.60;;
13897;SDS011;7019;50.766;4.474;2023-04-15T10:13:29;5.77;;;5.10;;
13897;SDS011;7019;50.766;4.474;2023-04-15T10:16:00;7.37;;;5.23;;
13897;SDS011;7019;50.766;4.474;2023-04-15T10:18:35;5.77;;;4.57;;
13897;SDS011;7019;50.766;4.474;2023-04-15T10:21:05;6.67;;;4.97;;
13897;SDS011;7019;50.766;4.474;2023-04-15T10:23:35;6.40;;;3.77;;
13897;SDS011;7019;50.766;4.474;2023-04-15T10:26:03;6.53;;;4.57;;
13897;SDS011;7019;50.766;4.474;2023-04-15T10:28:30;6.47;;;5.03;;
13897;SDS011;7019;50.766;4.474;2023-04-15T10:30:57;5.47;;;4.97;;
13897;SDS011;7019;50.766;4.474;2023-04-15T10:33:26;6.63;;;4.73;;
13897;SDS011;7019;50.766;4.474;2023-04-15T10:35:54;7.27;;;5.33;;
13897;SDS011;7019;50.766;4.474;2023-04-15T10:38:31;9.30;;;4.30;;
13897;SDS011;7019;50.766;4.474;2023-04-15T10:41:12;5.87;;;4.33;;
13897;SDS011;7019;50.766;4.474;2023-04-15T10:43:44;5.03;;;3.77;;
13897;SDS011;7019;50.766;4.474;2023-04-15T10:46:15;23.35;;;21.60;;
13897;SDS011;7019;50.766;4.474;2023-04-15T10:48:49;6.77;;;4.33;;
13897;SDS011;7019;50.766;4.474;2023-04-15T10:51:25;5.73;;;3.50;;
13897;SDS011;7019;50.766;4.474;2023-04-15T10:53:58;5.80;;;3.50;;
13897;SDS011;7019;50.766;4.474;2023-04-15T10:56:27;4.80;;;3.97;;
13897;SDS011;7019;50.766;4.474;2023-04-15T10:58:54;7.50;;;3.97;;
13897;SDS011;7019;50.766;4.474;2023-04-15T11:01:27;4.47;;;3.17;;
13897;SDS011;7019;50.766;4.474;2023-04-15T11:07:37;3.67;;;2.93;;
13897;SDS011;7019;50.766;4.474;2023-04-15T11:13:26;4.17;;;2.40;;
13897;SDS011;7019;50.766;4.474;2023-04-15T11:15:59;6.83;;;2.90;;
13897;SDS011;7019;50.766;4.474;2023-04-15T11:18:28;3.47;;;2.30;;
13897;SDS011;7019;50.766;4.474;2023-04-15T11:20:58;4.40;;;2.77;;
13897;SDS011;7019;50.766;4.474;2023-04-15T11:23:30;5.80;;;2.50;;
13897;SDS011;7019;50.766;4.474;2023-04-15T11:25:59;4.50;;;2.23;;
13897;SDS011;7019;50.766;4.474;2023-04-15T11:28:29;7.30;;;5.47;;
13897;SDS011;7019;50.766;4.474;2023-04-15T11:30:57;4.20;;;3.80;;
13897;SDS011;7019;50.766;4.474;2023-04-15T11:33:30;4.73;;;3.00;;
13897;SDS011;7019;50.766;4.474;2023-04-15T11:35:59;5.17;;;2.97;;
13897;SDS011;7019;50.766;4.474;2023-04-15T11:38:27;3.80;;;3.13;;
13897;SDS011;7019;50.766;4.474;2023-04-15T11:40:55;3.07;;;2.60;;
13897;SDS011;7019;50.766;4.474;2023-04-15T11:43:22;4.23;;;2.10;;
13897;SDS011;7019;50.766;4.474;2023-04-15T11:45:51;2.40;;;2.10;;
13897;SDS011;7019;50.766;4.474;2023-04-15T11:48:20;3.80;;;2.30;;
13897;SDS011;7019;50.766;4.474;2023-04-15T11:50:52;3.03;;;2.37;;
13897;SDS011;7019;50.766;4.474;2023-04-15T11:53:21;3.67;;;2.60;;
13897;SDS011;7019;50.766;4.474;2023-04-15T11:55:49;4.47;;;3.00;;
13897;SDS011;7019;50.766;4.474;2023-04-15T11:58:18;3.73;;;3.20;;
13897;SDS011;7019;50.766;4.474;2023-04-15T12:00:48;3.20;;;2.83;;
13897;SDS011;7019;50.766;4.474;2023-04-15T12:03:21;4.17;;;3.40;;
13897;SDS011;7019;50.766;4.474;2023-04-15T12:11:43;3.90;;;2.33;;
13897;SDS011;7019;50.766;4.474;2023-04-15T12:14:24;5.30;;;2.10;;
13897;SDS011;7019;50.766;4.474;2023-04-15T12:16:52;2.00;;;1.50;;
13897;SDS011;7019;50.766;4.474;2023-04-15T12:19:24;4.20;;;1.37;;
13897;SDS011;7019;50.766;4.474;2023-04-15T12:21:54;2.87;;;1.40;;
13897;SDS011;7019;50.766;4.474;2023-04-15T12:24:25;3.83;;;1.40;;
13897;SDS011;7019;50.766;4.474;2023-04-15T12:26:53;4.23;;;1.67;;
13897;SDS011;7019;50.766;4.474;2023-04-15T12:29:23;3.47;;;1.90;;
13897;SDS011;7019;50.766;4.474;2023-04-15T12:31:52;3.53;;;1.77;;
13897;SDS011;7019;50.766;4.474;2023-04-15T12:34:24;3.63;;;2.43;;
13897;SDS011;7019;50.766;4.474;2023-04-15T12:36:53;2.67;;;2.10;;
13897;SDS011;7019;50.766;4.474;2023-04-15T12:39:22;2.37;;;2.17;;
13897;SDS011;7019;50.766;4.474;2023-04-15T12:41:50;4.00;;;2.13;;
13897;SDS011;7019;50.766;4.474;2023-04-15T12:44:18;2.77;;;2.00;;
13897;SDS011;7019;50.766;4.474;2023-04-15T12:46:46;2.00;;;1.80;;
13897;SDS011;7019;50.766;4.474;2023-04-15T12:49:13;4.07;;;1.93;;
13897;SDS011;7019;50.766;4.474;2023-04-15T12:51:40;3.67;;;2.37;;
13897;SDS011;7019;50.766;4.474;2023-04-15T12:54:07;4.03;;;2.10;;
13897;SDS011;7019;50.766;4.474;2023-04-15T12:56:34;4.53;;;1.87;;
13897;SDS011;7019;50.766;4.474;2023-04-15T12:59:03;2.60;;;1.63;;
13897;SDS011;7019;50.766;4.474;2023-04-15T13:01:30;4.07;;;1.80;;
13897;SDS011;7019;50.766;4.474;2023-04-15T13:03:57;3.10;;;2.13;;
13897;SDS011;7019;50.766;4.474;2023-04-15T13:06:24;4.03;;;2.20;;
13897;SDS011;7019;50.766;4.474;2023-04-15T13:08:53;3.10;;;2.23;;
13897;SDS011;7019;50.766;4.474;2023-04-15T13:11:21;4.33;;;2.23;;
13897;SDS011;7019;50.766;4.474;2023-04-15T13:13:48;3.33;;;2.03;;
13897;SDS011;7019;50.766;4.474;2023-04-15T13:16:17;4.87;;;1.57;;
13897;SDS011;7019;50.766;4.474;2023-04-15T13:18:45;3.23;;;1.43;;
13897;SDS011;7019;50.766;4.474;2023-04-15T13:21:13;1.70;;;1.13;;
13897;SDS011;7019;50.766;4.474;2023-04-15T13:23:40;2.80;;;1.50;;
13897;SDS011;7019;50.766;4.474;2023-04-15T13:26:07;2.40;;;1.27;;
13897;SDS011;7019;50.766;4.474;2023-04-15T13:28:34;2.63;;;1.17;;
13897;SDS011;7019;50.766;4.474;2023-04-15T13:31:02;1.50;;;0.90;;
13897;SDS011;7019;50.766;4.474;2023-04-15T13:33:31;2.10;;;0.80;;
13897;SDS011;7019;50.766;4.474;2023-04-15T13:35:59;2.47;;;1.40;;
13897;SDS011;7019;50.766;4.474;2023-04-15T13:38:26;4.03;;;1.70;;
13897;SDS011;7019;50.766;4.474;2023-04-15T13:40:53;3.10;;;1.30;;
13897;SDS011;7019;50.766;4.474;2023-04-15T13:43:20;2.87;;;1.50;;
13897;SDS011;7019;50.766;4.474;2023-04-15T13:45:47;3.00;;;1.80;;
13897;SDS011;7019;50.766;4.474;2023-04-15T13:48:14;2.40;;;1.97;;
13897;SDS011;7019;50.766;4.474;2023-04-15T13:50:43;5.67;;;2.00;;
13897;SDS011;7019;50.766;4.474;2023-04-15T13:53:10;2.70;;;1.57;;
13897;SDS011;7019;50.766;4.474;2023-04-15T13:55:38;3.70;;;1.90;;
13897;SDS011;7019;50.766;4.474;2023-04-15T13:58:06;3.30;;;2.13;;
13897;SDS011;7019;50.766;4.474;2023-04-15T14:00:33;3.27;;;1.77;;
13897;SDS011;7019;50.766;4.474;2023-04-15T14:03:00;3.40;;;2.10;;
13897;SDS011;7019;50.766;4.474;2023-04-15T14:05:27;4.67;;;2.23;;
13897;SDS011;7019;50.766;4.474;2023-04-15T14:07:56;5.63;;;2.47;;
13897;SDS011;7019;50.766;4.474;2023-04-15T14:10:24;4.03;;;2.33;;
13897;SDS011;7019;50.766;4.474;2023-04-15T14:12:51;3.10;;;1.90;;
13897;SDS011;7019;50.766;4.474;2023-04-15T14:15:18;3.40;;;1.57;;
13897;SDS011;7019;50.766;4.474;2023-04-15T14:17:46;2.93;;;1.57;;
13897;SDS011;7019;50.766;4.474;2023-04-15T14:20:13;3.73;;;1.63;;
13897;SDS011;7019;50.766;4.474;2023-04-15T14:22:40;4.70;;;1.50;;
13897;SDS011;7019;50.766;4.474;2023-04-15T14:25:08;3.80;;;1.70;;
13897;SDS011;7019;50.766;4.474;2023-04-15T14:27:35;4.10;;;1.77;;
13897;SDS011;7019;50.766;4.474;2023-04-15T14:30:03;3.60;;;1.67;;
13897;SDS011;7019;50.766;4.474;2023-04-15T14:32:30;3.57;;;1.60;;
13897;SDS011;7019;50.766;4.474;2023-04-15T14:34:58;3.63;;;1.90;;
13897;SDS011;7019;50.766;4.474;2023-04-15T14:37:25;3.00;;;1.40;;
13897;SDS011;7019;50.766;4.474;2023-04-15T14:39:52;1.57;;;0.93;;
13897;SDS011;7019;50.766;4.474;2023-04-15T14:42:21;3.67;;;1.03;;
13897;SDS011;7019;50.766;4.474;2023-04-15T14:44:48;1.77;;;0.80;;
13897;SDS011;7019;50.766;4.474;2023-04-15T14:47:15;2.43;;;0.73;;
13897;SDS011;7019;50.766;4.474;2023-04-15T14:49:43;2.27;;;0.87;;
13897;SDS011;7019;50.766;4.474;2023-04-15T14:52:10;3.33;;;0.70;;
13897;SDS011;7019;50.766;4.474;2023-04-15T14:54:37;2.23;;;0.60;;
13897;SDS011;7019;50.766;4.474;2023-04-15T14:57:04;1.63;;;0.63;;
13897;SDS011;7019;50.766;4.474;2023-04-15T14:59:34;2.37;;;0.63;;
13897;SDS011;7019;50.766;4.474;2023-04-15T15:02:01;4.27;;;1.17;;
13897;SDS011;7019;50.766;4.474;2023-04-15T15:04:28;1.97;;;0.90;;
13897;SDS011;7019;50.766;4.474;2023-04-15T15:06:57;2.50;;;1.20;;
13897;SDS011;7019;50.766;4.474;2023-04-15T15:09:24;4.17;;;1.00;;
13897;SDS011;7019;50.766;4.474;2023-04-15T15:11:51;2.90;;;1.10;;
13897;SDS011;7019;50.766;4.474;2023-04-15T15:14:19;2.43;;;1.07;;
13897;SDS011;7019;50.766;4.474;2023-04-15T15:16:47;3.47;;;1.80;;